createdAt,value
2022-08-16T00:02:24.505Z,73.50
2022-08-16T00:04:53.209Z,73.60
2022-08-16T00:07:21.293Z,73.70
2022-08-16T00:09:51.088Z,73.80
2022-08-16T00:12:20.193Z,73.80
2022-08-16T00:14:48.702Z,73.90
2022-08-16T00:17:19.288Z,73.90
2022-08-16T00:19:53.596Z,74.10
2022-08-16T00:22:25.065Z,74.20
2022-08-16T00:24:55.560Z,74.40
2022-08-16T00:27:24.075Z,74.60
2022-08-16T00:30:00.504Z,74.70
2022-08-16T00:32:36.551Z,75.00
2022-08-16T00:35:15.357Z,75.20
2022-08-16T00:37:57.869Z,75.40
2022-08-16T00:40:34.016Z,75.50
2022-08-16T00:43:05.209Z,75.70
2022-08-16T00:45:55.477Z,75.90
2022-08-16T00:48:30.189Z,76.00
2022-08-16T00:51:00.150Z,76.20
2022-08-16T00:53:30.852Z,76.30
2022-08-16T00:56:05.471Z,76.40
2022-08-16T00:58:35.999Z,76.60
2022-08-16T01:01:08.158Z,76.70
2022-08-16T01:03:41.751Z,76.80
2022-08-16T01:06:32.677Z,77.00
2022-08-16T01:09:00.367Z,77.10
2022-08-16T01:11:29.965Z,77.20
2022-08-16T01:14:01.397Z,77.40
2022-08-16T01:16:30.715Z,77.50
2022-08-16T01:19:02.573Z,77.60
2022-08-16T01:21:40.008Z,77.70
2022-08-16T01:24:51.665Z,77.70
2022-08-16T01:27:23.391Z,77.90
2022-08-16T01:29:59.591Z,78.20
2022-08-16T01:32:33.543Z,78.40
2022-08-16T01:35:05.364Z,78.30
2022-08-16T01:37:42.671Z,78.80
2022-08-16T01:40:13.951Z,79.00
2022-08-16T01:42:48.183Z,79.20
2022-08-16T01:45:19.616Z,79.30
2022-08-16T01:47:52.392Z,79.30
2022-08-16T01:50:41.731Z,79.50
2022-08-16T01:53:11.349Z,79.70
2022-08-16T01:55:42.841Z,80.00
2022-08-16T01:58:24.124Z,80.10
2022-08-16T02:00:52.142Z,80.30
2022-08-16T02:03:24.361Z,80.40
2022-08-16T02:05:55.005Z,80.40
2022-08-16T02:08:33.903Z,80.60
2022-08-16T02:11:06.283Z,80.70
2022-08-16T02:13:35.513Z,81.00
2022-08-16T02:16:18.779Z,81.20
2022-08-16T02:18:47.554Z,81.20
2022-08-16T02:21:16.661Z,81.30
2022-08-16T02:23:44.638Z,81.40
2022-08-16T02:26:18.758Z,81.60
2022-08-16T02:28:47.398Z,81.80
2022-08-16T02:31:16.529Z,81.70
2022-08-16T02:33:49.082Z,81.80
2022-08-16T02:36:47.477Z,82.10
2022-08-16T02:39:09.620Z,82.00
2022-08-16T02:41:41.832Z,82.60
2022-08-16T02:44:13.695Z,82.70
2022-08-16T02:46:49.911Z,82.80
2022-08-16T02:49:21.860Z,82.80
2022-08-16T02:52:00.410Z,83.00
2022-08-16T02:54:29.522Z,83.10
2022-08-16T02:56:58.877Z,83.20
2022-08-16T02:59:28.180Z,83.40
2022-08-16T03:02:08.875Z,83.50
2022-08-16T03:04:51.070Z,83.70
2022-08-16T03:07:27.713Z,83.80
2022-08-16T03:10:00.586Z,84.00
2022-08-16T03:12:37.658Z,84.20
2022-08-16T03:15:07.157Z,84.40
2022-08-16T03:17:36.770Z,84.60
2022-08-16T03:20:21.595Z,84.70
2022-08-16T03:23:01.787Z,85.00
2022-08-16T03:25:40.821Z,85.20
2022-08-16T03:28:17.267Z,85.30
2022-08-16T03:30:46.231Z,85.40
2022-08-16T03:33:15.823Z,85.40
2022-08-16T03:35:44.512Z,85.60
2022-08-16T03:38:34.125Z,85.90
2022-08-16T03:41:05.384Z,86.00
2022-08-16T03:43:55.447Z,86.10
2022-08-16T03:46:47.236Z,86.30
2022-08-16T03:49:13.915Z,86.30
2022-08-16T03:51:43.134Z,86.60
2022-08-16T03:54:12.233Z,86.70
2022-08-16T03:56:56.623Z,86.90
2022-08-16T03:59:29.761Z,87.00
2022-08-16T04:01:58.354Z,87.20
2022-08-16T04:04:33.391Z,87.30
2022-08-16T04:07:02.801Z,87.50
2022-08-16T04:09:35.565Z,87.60
2022-08-16T04:12:11.289Z,87.70
2022-08-16T04:14:56.795Z,88.70
2022-08-16T04:17:26.927Z,88.10
2022-08-16T04:19:58.150Z,89.10
2022-08-16T04:22:27.905Z,88.60
2022-08-16T04:24:56.129Z,88.80
2022-08-16T04:27:29.056Z,89.70
2022-08-16T04:30:02.703Z,89.30
2022-08-16T04:32:31.772Z,89.40
2022-08-16T04:35:02.257Z,89.40
2022-08-16T04:37:32.927Z,89.50
2022-08-16T04:40:21.850Z,89.60
2022-08-16T04:42:53.441Z,90.00
2022-08-16T04:45:35.876Z,90.00
2022-08-16T04:48:05.513Z,90.10
2022-08-16T04:50:33.986Z,90.20
2022-08-16T04:53:01.983Z,90.30
2022-08-16T04:55:37.663Z,90.30
2022-08-16T04:58:44.433Z,90.30
2022-08-16T05:00:56.904Z,90.40
2022-08-16T05:03:26.129Z,90.40
2022-08-16T05:05:59.007Z,90.40
2022-08-16T05:08:34.322Z,90.40
2022-08-16T05:11:08.497Z,90.40
2022-08-16T05:13:40.653Z,90.40
2022-08-16T05:16:20.333Z,90.30
2022-08-16T05:18:51.467Z,90.50
2022-08-16T05:21:22.097Z,90.60
2022-08-16T05:23:55.495Z,90.60
2022-08-16T05:26:24.903Z,90.50
2022-08-16T05:28:56.632Z,90.60
2022-08-16T05:31:29.492Z,90.60
2022-08-16T05:33:59.191Z,90.60
2022-08-16T05:36:34.029Z,90.50
2022-08-16T05:39:06.723Z,90.60
2022-08-16T05:41:45.349Z,90.60
2022-08-16T05:44:22.454Z,90.60
2022-08-16T05:46:55.886Z,90.70
2022-08-16T05:49:24.291Z,90.70
2022-08-16T05:51:54.997Z,90.70
2022-08-16T05:54:25.867Z,90.60
2022-08-16T05:56:54.396Z,90.60
2022-08-16T05:59:24.293Z,90.60
2022-08-16T06:01:56.773Z,90.60
2022-08-16T06:04:34.840Z,90.60
2022-08-16T06:07:09.124Z,90.60
2022-08-16T06:09:52.620Z,90.60
2022-08-16T06:12:26.989Z,90.60
2022-08-16T06:14:59.200Z,90.60
2022-08-16T06:17:41.577Z,90.60
2022-08-16T06:20:14.603Z,90.60
2022-08-16T06:22:47.658Z,90.60
2022-08-16T06:25:35.993Z,90.50
2022-08-16T06:28:09.312Z,90.50
2022-08-16T06:30:43.938Z,90.40
2022-08-16T06:33:22.149Z,90.50
2022-08-16T06:35:54.786Z,90.40
2022-08-16T06:38:33.846Z,90.30
2022-08-16T06:41:05.438Z,90.30
2022-08-16T06:43:34.828Z,90.40
2022-08-16T06:46:05.950Z,90.30
2022-08-16T06:48:43.220Z,90.30
2022-08-16T06:51:11.972Z,90.20
2022-08-16T06:53:43.208Z,90.20
2022-08-16T06:56:14.329Z,90.20
2022-08-16T06:58:52.237Z,90.10
2022-08-16T07:01:44.531Z,90.10
2022-08-16T07:04:10.363Z,89.80
2022-08-16T07:06:43.236Z,89.70
2022-08-16T07:09:12.540Z,89.50
2022-08-16T07:11:46.222Z,89.40
2022-08-16T07:14:25.130Z,89.30
2022-08-16T07:16:57.869Z,89.20
2022-08-16T07:20:03.991Z,89.00
2022-08-16T07:22:39.042Z,88.60
2022-08-16T07:25:09.188Z,88.40
2022-08-16T07:27:38.724Z,88.40
2022-08-16T07:30:45.443Z,87.90
2022-08-16T07:33:00.265Z,87.40
2022-08-16T07:35:29.750Z,86.90
2022-08-16T07:37:57.836Z,86.20
2022-08-16T07:40:56.383Z,85.70
2022-08-16T07:43:15.011Z,85.20
2022-08-16T07:45:43.449Z,84.30
2022-08-16T07:48:14.289Z,83.70
2022-08-16T07:50:56.309Z,83.80
2022-08-16T07:53:29.111Z,83.70
2022-08-16T07:55:58.689Z,83.80
2022-08-16T07:58:34.845Z,83.70
2022-08-16T08:01:10.698Z,83.50
2022-08-16T08:03:42.501Z,83.30
2022-08-16T08:06:12.399Z,82.70
2022-08-16T08:08:50.385Z,82.60
2022-08-16T08:11:23.570Z,82.50
2022-08-16T08:13:53.502Z,82.30
2022-08-16T08:16:30.722Z,82.20
2022-08-16T08:19:02.842Z,82.10
2022-08-16T08:22:00.754Z,82.10
2022-08-16T08:24:31.581Z,81.70
2022-08-16T08:27:00.758Z,81.70
2022-08-16T08:29:37.755Z,82.60
2022-08-16T08:32:59.482Z,82.10
2022-08-16T08:35:00.305Z,82.10
2022-08-16T08:37:54.804Z,82.00
2022-08-16T08:40:24.748Z,82.00
2022-08-16T08:43:00.051Z,82.00
2022-08-16T08:45:48.745Z,82.10
2022-08-16T08:48:34.001Z,82.80
2022-08-16T08:51:04.356Z,81.90
2022-08-16T08:53:34.280Z,81.80
2022-08-16T08:56:23.672Z,81.50
2022-08-16T08:58:54.700Z,81.30
2022-08-16T09:01:36.700Z,80.80
2022-08-16T09:04:14.893Z,80.70
2022-08-16T09:06:46.252Z,80.70
2022-08-16T09:09:17.085Z,80.70
2022-08-16T09:11:49.563Z,80.30
2022-08-16T09:14:24.209Z,80.30
2022-08-16T09:17:02.293Z,80.00
2022-08-16T09:19:37.144Z,79.90
2022-08-16T09:22:20.984Z,80.30
2022-08-16T09:24:54.056Z,80.60
2022-08-16T09:27:56.479Z,80.30
2022-08-16T09:30:32.634Z,80.30
2022-08-16T09:33:06.530Z,80.30
2022-08-16T09:35:37.478Z,80.30
2022-08-16T09:38:08.694Z,80.10
2022-08-16T09:40:42.829Z,79.80
2022-08-16T09:43:44.815Z,79.60
2022-08-16T09:46:02.695Z,79.60
2022-08-16T09:48:44.456Z,79.90
2022-08-16T09:51:18.888Z,79.60
2022-08-16T09:53:53.815Z,79.40
2022-08-16T09:56:31.621Z,78.40
2022-08-16T09:59:03.646Z,78.70
2022-08-16T10:01:36.564Z,78.40
2022-08-16T10:04:29.833Z,78.80
2022-08-16T10:06:54.964Z,78.00
2022-08-16T10:09:53.491Z,77.70
2022-08-16T10:12:42.126Z,77.20
2022-08-16T10:15:15.691Z,77.00
2022-08-16T10:18:00.911Z,76.40
2022-08-16T10:20:34.122Z,75.90
2022-08-16T10:23:07.550Z,74.90
2022-08-16T10:27:18.694Z,75.10
2022-08-16T10:28:32.043Z,74.30
2022-08-16T10:31:03.678Z,74.20
2022-08-16T10:33:34.033Z,74.10
2022-08-16T10:36:04.919Z,74.10
2022-08-16T10:38:36.563Z,72.90
2022-08-16T10:41:07.347Z,72.60
2022-08-16T10:43:37.792Z,72.80
2022-08-16T10:46:39.815Z,72.70
2022-08-16T10:48:56.827Z,72.40
2022-08-16T10:51:33.718Z,72.00
2022-08-16T10:54:28.285Z,70.50
2022-08-16T10:56:58.130Z,70.70
2022-08-16T10:59:38.943Z,71.00
2022-08-16T11:02:57.560Z,71.10
2022-08-16T11:05:06.472Z,70.40
2022-08-16T11:07:43.476Z,69.80
2022-08-16T11:11:00.027Z,69.30
2022-08-16T11:15:55.387Z,66.50
2022-08-16T11:18:48.026Z,67.00
2022-08-16T11:21:29.518Z,67.90
2022-08-16T11:23:59.886Z,68.50
2022-08-16T11:26:28.677Z,68.50
2022-08-16T11:29:14.065Z,68.50
2022-08-16T11:31:46.031Z,68.20
2022-08-16T11:34:22.835Z,66.80
2022-08-16T11:36:53.623Z,66.60
2022-08-16T11:39:28.520Z,66.60
2022-08-16T11:41:57.910Z,66.10
2022-08-16T11:44:52.040Z,66.20
2022-08-16T11:47:16.092Z,66.40
2022-08-16T11:49:44.745Z,66.60
2022-08-16T11:52:12.774Z,66.20
2022-08-16T11:54:45.847Z,66.70
2022-08-16T11:57:22.003Z,65.30
2022-08-16T11:59:50.117Z,65.10
2022-08-16T12:02:31.814Z,64.90
2022-08-16T12:05:01.073Z,64.20
2022-08-16T12:07:29.788Z,64.20
2022-08-16T12:10:01.801Z,64.40
2022-08-16T12:12:30.352Z,64.20
2022-08-16T12:15:00.821Z,64.50
2022-08-16T12:17:32.427Z,64.20
2022-08-16T12:20:01.039Z,64.30
2022-08-16T12:22:29.759Z,64.60
2022-08-16T12:25:02.449Z,64.10
2022-08-16T12:27:33.095Z,63.50
2022-08-16T12:30:01.136Z,63.00
2022-08-16T12:32:38.628Z,62.10
2022-08-16T12:35:13.195Z,62.90
2022-08-16T12:37:42.760Z,62.00
2022-08-16T12:40:24.158Z,60.50
2022-08-16T12:42:54.678Z,60.10
2022-08-16T12:45:30.454Z,60.10
2022-08-16T12:48:34.137Z,59.10
2022-08-16T12:51:03.426Z,59.00
2022-08-16T12:53:34.384Z,58.80
2022-08-16T12:56:11.414Z,58.50
2022-08-16T12:58:49.769Z,58.60
2022-08-16T13:01:19.237Z,58.90
2022-08-16T13:04:11.575Z,58.80
2022-08-16T13:06:44.971Z,58.90
2022-08-16T13:09:23.461Z,59.20
2022-08-16T13:12:03.714Z,59.20
2022-08-16T13:14:36.012Z,59.10
2022-08-16T13:17:07.720Z,58.90
2022-08-16T13:20:06.657Z,58.70
2022-08-16T13:22:26.200Z,58.80
2022-08-16T13:24:55.350Z,59.40
2022-08-16T13:28:02.986Z,59.40
2022-08-16T13:30:36.438Z,58.90
2022-08-16T13:33:01.709Z,58.40
2022-08-16T13:35:43.077Z,57.80
2022-08-16T13:38:25.204Z,57.00
2022-08-16T13:40:56.647Z,56.50
2022-08-16T13:43:26.888Z,56.60
2022-08-16T13:45:56.153Z,56.90
2022-08-16T13:48:25.915Z,56.90
2022-08-16T13:51:00.573Z,57.00
2022-08-16T13:53:32.575Z,57.50
2022-08-16T13:56:00.942Z,57.50
2022-08-16T13:58:34.920Z,57.70
2022-08-16T14:01:09.984Z,57.50
2022-08-16T14:03:39.544Z,57.30
2022-08-16T14:06:11.146Z,56.90
2022-08-16T14:08:41.932Z,56.40
2022-08-16T14:11:11.823Z,56.70
2022-08-16T14:13:40.724Z,56.20
2022-08-16T14:16:12.478Z,56.10
2022-08-16T14:18:52.875Z,55.80
2022-08-16T14:21:24.053Z,54.70
2022-08-16T14:23:53.214Z,54.30
2022-08-16T14:26:21.855Z,54.40
2022-08-16T14:28:54.534Z,54.70
2022-08-16T14:31:23.646Z,54.90
2022-08-16T14:33:51.992Z,55.00
2022-08-16T14:36:29.657Z,55.20
2022-08-16T14:38:58.456Z,56.00
2022-08-16T14:41:26.984Z,56.90
2022-08-16T14:43:55.316Z,57.40
2022-08-16T14:46:23.409Z,56.70
2022-08-16T14:48:53.357Z,56.00
2022-08-16T14:51:23.275Z,55.90
2022-08-16T14:53:57.044Z,56.60
2022-08-16T14:56:38.495Z,58.00
2022-08-16T14:59:11.497Z,57.10
2022-08-16T15:01:58.001Z,55.60
2022-08-16T15:04:39.694Z,55.40
2022-08-16T15:07:21.584Z,54.80
2022-08-16T15:10:01.127Z,54.30
2022-08-16T15:12:35.962Z,53.70
2022-08-16T15:15:12.297Z,53.80
2022-08-16T15:17:56.170Z,53.70
2022-08-16T15:20:26.537Z,53.50
2022-08-16T15:22:56.788Z,52.50
2022-08-16T15:25:29.607Z,53.00
2022-08-16T15:27:58.839Z,52.50
2022-08-16T15:30:57.748Z,53.10
2022-08-16T15:33:19.687Z,52.60
2022-08-16T15:35:50.277Z,52.50
2022-08-16T15:38:43.525Z,51.90
2022-08-16T15:41:09.856Z,51.30
2022-08-16T15:43:42.909Z,50.90
2022-08-16T15:46:54.159Z,50.70
2022-08-16T15:49:13.334Z,50.30
2022-08-16T15:51:44.925Z,50.60
2022-08-16T15:54:29.669Z,50.70
2022-08-16T15:57:11.463Z,51.40
2022-08-16T15:59:48.567Z,51.20
2022-08-16T16:02:29.664Z,52.10
2022-08-16T16:05:02.132Z,52.60
2022-08-16T16:07:32.080Z,53.10
2022-08-16T16:10:05.905Z,53.40
2022-08-16T16:12:54.350Z,53.80
2022-08-16T16:15:26.304Z,53.60
2022-08-16T16:18:09.041Z,54.20
2022-08-16T16:20:39.185Z,53.80
2022-08-16T16:23:11.160Z,54.10
2022-08-16T16:25:43.794Z,54.20
2022-08-16T16:29:05.074Z,54.70
2022-08-16T16:31:05.870Z,55.10
2022-08-16T16:33:36.927Z,55.70
2022-08-16T16:36:07.527Z,56.20
2022-08-16T16:38:36.582Z,56.80
2022-08-16T16:41:12.036Z,57.00
2022-08-16T16:43:43.094Z,57.30
2022-08-16T16:46:41.950Z,57.60
2022-08-16T16:49:03.141Z,57.70
2022-08-16T16:51:40.696Z,57.90
2022-08-16T16:54:12.741Z,57.90
2022-08-16T16:56:49.736Z,57.90
2022-08-16T16:59:18.268Z,58.00
2022-08-16T17:01:57.699Z,58.00
2022-08-16T17:04:32.266Z,58.00
2022-08-16T17:07:02.277Z,58.10
2022-08-16T17:09:31.032Z,58.10
2022-08-16T17:12:00.751Z,58.20
2022-08-16T17:14:33.215Z,58.00
2022-08-16T17:17:05.088Z,57.60
2022-08-16T17:19:33.274Z,57.40
2022-08-16T17:22:01.421Z,57.30
2022-08-16T17:24:39.365Z,57.30
2022-08-16T17:27:09.730Z,57.50
2022-08-16T17:29:42.712Z,57.70
2022-08-16T17:32:47.330Z,57.80
2022-08-16T17:35:10.806Z,57.60
2022-08-16T17:37:48.662Z,57.20
2022-08-16T17:40:40.538Z,57.00
2022-08-16T17:43:13.546Z,56.80
2022-08-16T17:45:43.623Z,56.40
2022-08-16T17:48:12.241Z,56.00
2022-08-16T17:50:41.697Z,55.90
2022-08-16T17:53:11.283Z,56.00
2022-08-16T17:55:42.540Z,56.10
2022-08-16T17:58:22.278Z,56.30
2022-08-16T18:00:53.420Z,56.50
2022-08-16T18:04:02.230Z,56.60
2022-08-16T18:06:15.750Z,56.90
2022-08-16T18:08:44.310Z,57.10
2022-08-16T18:11:13.477Z,58.40
2022-08-16T18:13:43.712Z,60.10
2022-08-16T18:16:13.985Z,63.50
2022-08-16T18:18:42.302Z,64.60
2022-08-16T18:21:32.391Z,66.40
2022-08-16T18:24:01.848Z,67.10
2022-08-16T18:26:30.387Z,68.00
2022-08-16T18:28:59.857Z,68.50
2022-08-16T18:31:28.152Z,69.40
2022-08-16T18:33:56.522Z,69.90
2022-08-16T18:36:25.080Z,70.10
2022-08-16T18:38:54.282Z,71.20
2022-08-16T18:41:24.074Z,70.70
2022-08-16T18:44:22.585Z,71.00
2022-08-16T18:46:44.462Z,71.50
2022-08-16T18:49:14.098Z,71.80
2022-08-16T18:51:46.539Z,71.80
2022-08-16T18:54:18.125Z,72.80
2022-08-16T18:56:55.642Z,72.20
2022-08-16T18:59:26.403Z,72.70
2022-08-16T19:02:00.381Z,73.30
2022-08-16T19:04:54.821Z,73.60
2022-08-16T19:07:21.845Z,73.70
2022-08-16T19:09:50.205Z,74.20
2022-08-16T19:12:38.659Z,74.40
2022-08-16T19:15:11.922Z,74.50
2022-08-16T19:17:41.783Z,74.60
2022-08-16T19:20:11.428Z,74.70
2022-08-16T19:23:02.299Z,75.10
2022-08-16T19:25:46.712Z,75.30
2022-08-16T19:28:49.013Z,75.50
2022-08-16T19:31:08.579Z,75.90
2022-08-16T19:33:38.481Z,76.20
2022-08-16T19:36:11.639Z,76.40
2022-08-16T19:38:57.442Z,76.40
2022-08-16T19:41:32.984Z,76.70
2022-08-16T19:44:01.461Z,77.00
2022-08-16T19:46:29.601Z,77.30
2022-08-16T19:48:59.159Z,77.50
2022-08-16T19:51:27.890Z,77.60
2022-08-16T19:53:56.114Z,77.80
2022-08-16T19:56:25.757Z,78.10
2022-08-16T20:01:46.204Z,78.60
2022-08-16T20:04:15.751Z,78.90
2022-08-16T20:06:43.941Z,79.10
2022-08-16T20:09:15.808Z,79.70
2022-08-16T20:11:45.151Z,79.60
2022-08-16T20:14:19.375Z,79.80
2022-08-16T20:16:56.829Z,79.90
2022-08-16T20:19:27.383Z,80.70
2022-08-16T20:21:58.599Z,80.10
2022-08-16T20:24:34.742Z,80.40
2022-08-16T20:27:05.066Z,80.60
2022-08-16T20:29:33.383Z,80.90
2022-08-16T20:32:01.456Z,81.00
2022-08-16T20:34:30.941Z,81.20
2022-08-16T20:36:58.960Z,81.20
2022-08-16T20:39:27.080Z,81.30
2022-08-16T20:41:55.346Z,81.50
2022-08-16T20:44:25.250Z,81.70
2022-08-16T20:46:53.827Z,81.80
2022-08-16T20:49:22.058Z,81.90
2022-08-16T20:51:57.254Z,82.00
2022-08-16T20:54:28.164Z,83.00
2022-08-16T20:56:56.499Z,82.40
2022-08-16T20:59:24.465Z,82.70
2022-08-16T21:01:53.287Z,82.90
2022-08-16T21:04:22.416Z,82.90
2022-08-16T21:06:54.369Z,83.10
2022-08-16T21:09:24.514Z,83.40
2022-08-16T21:11:54.813Z,83.70
2022-08-16T21:14:23.142Z,83.70
2022-08-16T21:16:51.685Z,83.90
2022-08-16T21:19:20.521Z,84.10
2022-08-16T21:21:48.879Z,84.20
2022-08-16T21:24:19.033Z,84.30
2022-08-16T21:26:50.986Z,84.60
2022-08-16T21:29:27.842Z,84.70
2022-08-16T21:32:13.090Z,84.80
2022-08-16T21:34:41.983Z,85.70
2022-08-16T21:37:10.337Z,85.10
2022-08-16T21:39:40.345Z,85.30
2022-08-16T21:42:10.307Z,85.40
2022-08-16T21:44:39.498Z,85.50
2022-08-16T21:47:08.271Z,85.50
2022-08-16T21:49:37.186Z,85.60
2022-08-16T21:52:06.327Z,85.80
2022-08-16T21:54:35.055Z,85.90
2022-08-16T21:57:08.769Z,86.00
2022-08-16T21:59:38.277Z,86.10
2022-08-16T22:02:07.175Z,86.10
2022-08-16T22:04:38.802Z,86.10
2022-08-16T22:07:07.665Z,86.20
2022-08-16T22:09:36.264Z,86.20
2022-08-16T22:12:06.384Z,86.20
2022-08-16T22:14:34.698Z,86.20
2022-08-16T22:17:03.009Z,86.20
2022-08-16T22:19:31.528Z,86.40
2022-08-16T22:22:01.570Z,86.60
2022-08-16T22:24:29.814Z,86.70
2022-08-16T22:26:57.990Z,86.70
2022-08-16T22:29:27.533Z,86.70
2022-08-16T22:31:55.812Z,86.70
2022-08-16T22:34:23.875Z,86.80
2022-08-16T22:36:52.717Z,86.80
2022-08-16T22:39:20.748Z,86.80
2022-08-16T22:41:50.026Z,86.80
2022-08-16T22:44:19.159Z,86.90
2022-08-16T22:46:48.799Z,86.90
2022-08-16T22:49:17.191Z,86.90
2022-08-16T22:51:45.649Z,86.90
2022-08-16T22:54:44.084Z,86.80
2022-08-16T22:57:02.193Z,86.80
2022-08-16T22:59:32.049Z,86.70
2022-08-16T23:02:03.904Z,86.50
2022-08-16T23:04:32.713Z,86.40
2022-08-16T23:07:01.216Z,86.40
2022-08-16T23:09:30.542Z,86.30
2022-08-16T23:12:03.779Z,86.30
2022-08-16T23:14:32.947Z,86.30
2022-08-16T23:17:02.461Z,86.30
2022-08-16T23:19:31.105Z,86.30
2022-08-16T23:21:59.489Z,86.30
2022-08-16T23:24:27.823Z,86.30
2022-08-16T23:26:56.034Z,86.20
2022-08-16T23:29:26.725Z,86.20
2022-08-16T23:31:57.314Z,86.30
2022-08-16T23:34:27.927Z,86.20
2022-08-16T23:36:56.680Z,86.30
2022-08-16T23:39:25.058Z,86.30
2022-08-16T23:41:53.836Z,86.30
2022-08-16T23:44:56.225Z,86.30
2022-08-16T23:47:10.665Z,86.30
2022-08-16T23:49:58.779Z,86.30
2022-08-16T23:52:40.540Z,86.30
2022-08-16T23:55:19.364Z,86.30
2022-08-16T23:57:47.778Z,86.50
